createdAt,value
2022-08-17T00:00:43.993Z,48.05
2022-08-17T00:03:14.439Z,47.97
2022-08-17T00:05:44.291Z,47.81
2022-08-17T00:08:14.295Z,47.86
2022-08-17T00:10:44.450Z,47.53
2022-08-17T00:13:17.313Z,48.06
2022-08-17T00:15:45.900Z,47.99
2022-08-17T00:18:58.391Z,48.45
2022-08-17T00:21:04.723Z,47.88
2022-08-17T00:23:39.672Z,47.99
2022-08-17T00:26:34.874Z,48.50
2022-08-17T00:29:07.370Z,48.37
2022-08-17T00:31:37.020Z,48.70
2022-08-17T00:34:06.222Z,48.79
2022-08-17T00:36:34.544Z,48.57
2022-08-17T00:39:02.972Z,49.14
2022-08-17T00:41:35.761Z,48.73
2022-08-17T00:44:05.197Z,48.98
2022-08-17T00:46:34.871Z,48.75
2022-08-17T00:49:03.326Z,48.83
2022-08-17T00:51:32.412Z,48.84
2022-08-17T00:54:05.762Z,48.86
2022-08-17T00:56:36.141Z,48.97
2022-08-17T00:59:05.458Z,49.24
2022-08-17T01:01:33.972Z,49.07
2022-08-17T01:04:02.386Z,49.23
2022-08-17T01:06:30.986Z,49.27
2022-08-17T01:08:59.661Z,49.28
2022-08-17T01:11:28.043Z,49.29
2022-08-17T01:13:58.014Z,49.39
2022-08-17T01:16:27.395Z,49.55
2022-08-17T01:18:56.891Z,49.24
2022-08-17T01:21:28.615Z,49.32
2022-08-17T01:23:58.409Z,49.51
2022-08-17T01:26:27.120Z,50.03
2022-08-17T01:28:56.005Z,49.38
2022-08-17T01:31:25.621Z,50.08
2022-08-17T01:33:54.616Z,51.14
2022-08-17T01:36:23.092Z,51.54
2022-08-17T01:38:51.476Z,50.21
2022-08-17T01:41:24.197Z,50.32
2022-08-17T01:43:53.795Z,50.42
2022-08-17T01:46:23.237Z,50.27
2022-08-17T01:48:51.715Z,50.23
2022-08-17T01:51:20.429Z,49.78
2022-08-17T01:53:50.164Z,49.96
2022-08-17T01:56:19.925Z,50.04
2022-08-17T01:58:50.151Z,50.26
2022-08-17T02:01:19.157Z,50.75
2022-08-17T02:03:56.121Z,51.50
2022-08-17T02:06:30.042Z,51.15
2022-08-17T02:09:03.271Z,51.34
2022-08-17T02:11:32.381Z,51.69
2022-08-17T02:14:04.052Z,51.50
2022-08-17T02:16:36.828Z,51.65
2022-08-17T02:19:07.290Z,51.51
2022-08-17T02:21:36.097Z,51.27
2022-08-17T02:24:04.867Z,51.34
2022-08-17T02:26:33.477Z,51.39
2022-08-17T02:29:04.152Z,50.97
2022-08-17T02:31:34.956Z,51.33
2022-08-17T02:34:05.006Z,51.24
2022-08-17T02:36:34.371Z,51.55
2022-08-17T02:39:02.994Z,51.46
2022-08-17T02:41:31.310Z,51.38
2022-08-17T02:43:59.953Z,51.54
2022-08-17T02:46:30.535Z,51.83
2022-08-17T02:48:58.905Z,51.65
2022-08-17T02:51:27.702Z,51.55
2022-08-17T02:54:03.909Z,51.72
2022-08-17T02:56:44.948Z,52.50
2022-08-17T02:59:13.489Z,52.02
2022-08-17T03:01:43.305Z,52.41
2022-08-17T03:04:11.975Z,52.79
2022-08-17T03:06:40.307Z,53.27
2022-08-17T03:09:08.901Z,53.96
2022-08-17T03:11:37.593Z,53.57
2022-08-17T03:14:05.911Z,53.49
2022-08-17T03:16:34.212Z,54.13
2022-08-17T03:19:05.725Z,54.20
2022-08-17T03:21:34.075Z,54.30
2022-08-17T03:24:02.705Z,54.04
2022-08-17T03:26:37.594Z,53.99
2022-08-17T03:29:06.222Z,53.85
2022-08-17T03:31:34.554Z,53.93
2022-08-17T03:34:07.606Z,54.21
2022-08-17T03:36:36.212Z,54.88
2022-08-17T03:39:04.699Z,54.85
2022-08-17T03:41:33.533Z,54.25
2022-08-17T03:44:01.874Z,55.10
2022-08-17T03:46:47.655Z,54.71
2022-08-17T03:49:35.187Z,54.80
2022-08-17T03:52:20.943Z,54.99
2022-08-17T03:55:07.405Z,55.21
2022-08-17T03:57:36.877Z,55.77
2022-08-17T04:00:06.044Z,55.64
2022-08-17T04:02:40.454Z,55.29
2022-08-17T04:05:10.785Z,55.02
2022-08-17T04:07:39.120Z,54.79
2022-08-17T04:10:08.042Z,54.85
2022-08-17T04:12:44.620Z,54.93
2022-08-17T04:15:13.904Z,54.94
2022-08-17T04:17:44.281Z,54.62
2022-08-17T04:20:15.145Z,55.12
2022-08-17T04:22:56.111Z,54.97
2022-08-17T04:25:25.513Z,54.78
2022-08-17T04:27:54.132Z,54.94
2022-08-17T04:30:22.672Z,53.91
2022-08-17T04:33:04.552Z,54.71
2022-08-17T04:35:37.898Z,53.96
2022-08-17T04:38:07.682Z,53.50
2022-08-17T04:40:54.456Z,53.87
2022-08-17T04:43:24.893Z,53.34
2022-08-17T04:45:55.496Z,53.26
2022-08-17T04:48:36.532Z,53.90
2022-08-17T04:51:10.514Z,53.31
2022-08-17T04:53:39.763Z,52.62
2022-08-17T04:56:16.077Z,52.46
2022-08-17T04:58:45.666Z,52.90
2022-08-17T05:01:14.361Z,53.29
2022-08-17T05:03:42.929Z,52.68
2022-08-17T05:06:12.629Z,52.88
2022-08-17T05:08:41.312Z,52.58
2022-08-17T05:11:09.644Z,51.85
2022-08-17T05:13:38.037Z,51.72
2022-08-17T05:16:09.102Z,52.26
2022-08-17T05:18:38.934Z,51.47
2022-08-17T05:21:07.796Z,51.83
2022-08-17T05:23:42.844Z,50.71
2022-08-17T05:26:19.819Z,49.72
2022-08-17T05:28:57.221Z,48.93
2022-08-17T05:31:28.770Z,49.67
2022-08-17T05:33:57.214Z,49.06
2022-08-17T05:36:42.446Z,48.88
2022-08-17T05:39:16.707Z,45.79
2022-08-17T05:41:46.658Z,45.58
2022-08-17T05:44:15.284Z,44.17
2022-08-17T05:46:45.303Z,43.80
2022-08-17T05:49:15.359Z,43.52
2022-08-17T05:51:48.753Z,43.22
2022-08-17T05:54:33.900Z,42.08
2022-08-17T05:57:09.339Z,42.21
2022-08-17T05:59:40.518Z,42.93
2022-08-17T06:02:11.695Z,42.62
2022-08-17T06:04:45.662Z,42.69
2022-08-17T06:07:15.613Z,42.90
2022-08-17T06:09:47.073Z,43.74
2022-08-17T06:12:34.396Z,43.47
2022-08-17T06:15:07.472Z,43.01
2022-08-17T06:17:35.835Z,43.47
2022-08-17T06:20:07.003Z,43.70
2022-08-17T06:22:37.398Z,44.25
2022-08-17T06:25:10.057Z,44.78
2022-08-17T06:27:39.801Z,44.48
2022-08-17T06:30:09.949Z,44.29
2022-08-17T06:32:39.110Z,44.64
2022-08-17T06:35:08.624Z,45.16
2022-08-17T06:37:48.952Z,45.02
2022-08-17T06:40:23.576Z,45.03
2022-08-17T06:43:05.595Z,44.28
2022-08-17T06:45:37.094Z,43.75
2022-08-17T06:48:07.520Z,44.30
2022-08-17T06:50:37.639Z,44.13
2022-08-17T06:53:06.968Z,44.36
2022-08-17T06:55:38.526Z,43.83
2022-08-17T06:58:15.891Z,43.89
2022-08-17T07:00:46.166Z,44.00
2022-08-17T07:03:16.404Z,42.70
2022-08-17T07:05:45.963Z,42.75
2022-08-17T07:08:18.629Z,42.00
2022-08-17T07:10:50.300Z,42.58
2022-08-17T07:13:25.538Z,42.08
2022-08-17T07:15:57.205Z,41.56
2022-08-17T07:18:26.561Z,40.16
2022-08-17T07:20:56.259Z,40.15
2022-08-17T07:23:26.703Z,41.12
2022-08-17T07:25:58.114Z,40.76
2022-08-17T07:28:27.190Z,40.78
2022-08-17T07:30:55.715Z,39.98
2022-08-17T07:33:25.767Z,39.76
2022-08-17T07:35:54.667Z,39.18
2022-08-17T07:38:26.841Z,39.35
2022-08-17T07:41:05.223Z,38.78
2022-08-17T07:43:33.943Z,39.64
2022-08-17T07:46:25.266Z,39.22
2022-08-17T07:48:54.531Z,37.80
2022-08-17T07:51:27.809Z,38.36
2022-08-17T07:54:13.091Z,37.70
2022-08-17T07:56:46.012Z,37.14
2022-08-17T07:59:18.099Z,36.74
2022-08-17T08:02:03.569Z,37.08
2022-08-17T08:04:59.282Z,36.69
2022-08-17T08:07:25.722Z,35.80
2022-08-17T08:10:01.338Z,35.73
2022-08-17T08:12:33.809Z,36.23
2022-08-17T08:15:04.688Z,34.46
2022-08-17T08:17:35.781Z,34.78
2022-08-17T08:20:51.080Z,35.01
2022-08-17T08:22:57.538Z,33.75
2022-08-17T08:25:28.828Z,34.32
2022-08-17T08:28:10.975Z,34.60
2022-08-17T08:30:42.576Z,32.84
2022-08-17T08:33:29.470Z,32.78
2022-08-17T08:35:59.903Z,33.06
2022-08-17T08:38:30.909Z,32.64
2022-08-17T08:41:02.801Z,32.64
2022-08-17T08:43:36.433Z,32.34
2022-08-17T08:46:06.390Z,32.18
2022-08-17T08:48:58.207Z,31.89
2022-08-17T08:51:31.211Z,31.07
2022-08-17T08:54:01.084Z,30.99
2022-08-17T08:56:32.696Z,31.90
2022-08-17T08:59:03.570Z,31.52
2022-08-17T09:01:34.815Z,28.94
2022-08-17T09:04:25.274Z,29.05
2022-08-17T09:07:01.499Z,29.31
2022-08-17T09:09:36.854Z,28.99
2022-08-17T09:12:09.042Z,28.37
2022-08-17T09:14:45.073Z,29.13
2022-08-17T09:17:18.323Z,28.65
2022-08-17T09:19:47.920Z,28.68
2022-08-17T09:22:21.479Z,28.71
2022-08-17T09:24:50.551Z,29.36
2022-08-17T09:27:19.922Z,29.31
2022-08-17T09:29:50.902Z,29.64
2022-08-17T09:32:20.766Z,28.78
2022-08-17T09:34:50.913Z,29.18
2022-08-17T09:37:22.899Z,28.91
2022-08-17T09:39:52.927Z,28.64
2022-08-17T09:42:23.613Z,27.92
2022-08-17T09:44:55.433Z,28.49
2022-08-17T09:47:26.359Z,28.72
2022-08-17T09:49:55.334Z,28.44
2022-08-17T09:52:24.833Z,28.59
2022-08-17T09:54:53.732Z,28.52
2022-08-17T09:57:30.226Z,29.20
2022-08-17T10:00:18.793Z,28.11
2022-08-17T10:02:56.053Z,28.55
2022-08-17T10:05:25.940Z,27.90
2022-08-17T10:07:56.463Z,27.36
2022-08-17T10:10:26.660Z,27.45
2022-08-17T10:12:56.655Z,27.34
2022-08-17T10:15:27.600Z,27.64
2022-08-17T10:18:21.371Z,27.11
2022-08-17T10:21:13.699Z,26.67
2022-08-17T10:23:59.750Z,26.93
2022-08-17T10:26:28.517Z,26.88
2022-08-17T10:29:16.892Z,25.82
2022-08-17T10:31:46.193Z,26.50
2022-08-17T10:34:23.019Z,26.58
2022-08-17T10:36:54.756Z,26.46
2022-08-17T10:39:25.613Z,26.20
2022-08-17T10:41:54.898Z,26.35
2022-08-17T10:44:38.282Z,24.10
2022-08-17T10:47:09.849Z,24.37
2022-08-17T10:49:44.276Z,25.07
2022-08-17T10:52:27.804Z,24.91
2022-08-17T10:55:12.157Z,24.81
2022-08-17T10:57:41.940Z,23.75
2022-08-17T11:00:27.899Z,23.96
2022-08-17T11:02:57.552Z,24.52
2022-08-17T11:05:44.379Z,24.19
2022-08-17T11:08:23.420Z,24.29
2022-08-17T11:10:59.343Z,23.92
2022-08-17T11:13:31.104Z,23.39
2022-08-17T11:16:08.105Z,24.85
2022-08-17T11:18:52.654Z,26.28
2022-08-17T11:21:39.309Z,25.33
2022-08-17T11:24:18.386Z,26.30
2022-08-17T11:27:01.394Z,26.44
2022-08-17T11:29:31.397Z,26.02
2022-08-17T11:32:02.172Z,26.17
2022-08-17T11:34:31.725Z,25.10
2022-08-17T11:37:05.726Z,25.40
2022-08-17T11:39:52.368Z,25.63
2022-08-17T11:42:30.648Z,25.25
2022-08-17T11:44:59.899Z,25.73
2022-08-17T11:48:08.982Z,25.04
2022-08-17T11:50:56.462Z,24.62
2022-08-17T11:53:43.940Z,24.51
2022-08-17T11:56:13.326Z,24.68
2022-08-17T11:58:43.373Z,24.96
2022-08-17T12:01:13.684Z,23.41
2022-08-17T12:03:54.166Z,23.08
2022-08-17T12:06:32.367Z,23.53
2022-08-17T12:09:02.922Z,23.26
2022-08-17T12:11:55.541Z,23.28
2022-08-17T12:14:40.155Z,22.83
2022-08-17T12:17:22.463Z,22.28
2022-08-17T12:20:12.173Z,21.52
2022-08-17T12:22:43.486Z,21.22
2022-08-17T12:25:12.766Z,21.46
2022-08-17T12:28:04.853Z,20.92
2022-08-17T12:30:35.766Z,20.99
2022-08-17T12:33:04.071Z,21.33
2022-08-17T12:35:34.542Z,20.61
2022-08-17T12:38:03.138Z,19.39
2022-08-17T12:40:32.481Z,19.83
2022-08-17T12:43:01.563Z,19.81
2022-08-17T12:45:30.870Z,19.37
2022-08-17T12:48:07.708Z,19.34
2022-08-17T12:50:37.173Z,18.85
2022-08-17T12:53:06.430Z,18.73
2022-08-17T12:55:36.176Z,19.47
2022-08-17T12:58:04.802Z,18.19
2022-08-17T13:00:34.738Z,18.41
2022-08-17T13:03:06.087Z,17.54
2022-08-17T13:05:36.623Z,17.64
2022-08-17T13:08:06.064Z,17.78
2022-08-17T13:10:35.359Z,17.56
2022-08-17T13:13:05.989Z,17.12
2022-08-17T13:15:36.892Z,17.84
2022-08-17T13:18:08.012Z,18.02
2022-08-17T13:20:36.795Z,18.15
2022-08-17T13:23:11.992Z,18.17
2022-08-17T13:25:41.236Z,18.30
2022-08-17T13:28:17.608Z,17.57
2022-08-17T13:31:13.316Z,17.15
2022-08-17T13:33:44.976Z,16.11
2022-08-17T13:36:19.378Z,15.82
2022-08-17T13:38:59.895Z,16.43
2022-08-17T13:41:33.638Z,15.96
2022-08-17T13:44:02.048Z,16.11
2022-08-17T13:46:32.153Z,16.05
2022-08-17T13:49:05.114Z,15.84
2022-08-17T13:51:35.308Z,16.77
2022-08-17T13:54:19.383Z,16.29
2022-08-17T13:56:51.749Z,15.93
2022-08-17T13:59:53.092Z,16.21
2022-08-17T14:02:15.611Z,16.51
2022-08-17T14:04:46.329Z,17.43
2022-08-17T14:07:28.984Z,18.27
2022-08-17T14:09:59.137Z,17.82
2022-08-17T14:12:28.488Z,17.17
2022-08-17T14:14:57.374Z,17.49
2022-08-17T14:17:26.365Z,16.73
2022-08-17T14:19:56.726Z,16.52
2022-08-17T14:22:27.026Z,16.23
2022-08-17T14:24:55.659Z,16.55
2022-08-17T14:27:26.342Z,15.38
2022-08-17T14:29:54.851Z,16.06
2022-08-17T14:32:24.829Z,16.29
2022-08-17T14:34:53.408Z,16.92
2022-08-17T14:37:26.340Z,15.60
2022-08-17T14:39:56.300Z,15.44
2022-08-17T14:42:26.319Z,16.05
2022-08-17T14:44:55.561Z,15.46
2022-08-17T14:47:23.913Z,15.79
2022-08-17T14:49:52.246Z,15.15
2022-08-17T14:52:24.101Z,16.02
2022-08-17T14:54:52.934Z,15.74
2022-08-17T14:57:34.326Z,16.02
2022-08-17T15:00:03.516Z,15.46
2022-08-17T15:02:32.200Z,15.06
2022-08-17T15:05:00.807Z,15.48
2022-08-17T15:07:31.385Z,15.48
2022-08-17T15:10:01.473Z,15.83
2022-08-17T15:12:33.146Z,15.90
2022-08-17T15:15:04.911Z,15.88
2022-08-17T15:17:44.503Z,16.09
2022-08-17T15:20:15.404Z,15.94
2022-08-17T15:22:45.684Z,16.17
2022-08-17T15:25:14.574Z,16.00
2022-08-17T15:27:42.940Z,16.80
2022-08-17T15:30:11.836Z,16.03
2022-08-17T15:32:41.172Z,16.25
2022-08-17T15:35:19.450Z,16.45
2022-08-17T15:37:58.188Z,16.98
2022-08-17T15:40:26.752Z,17.40
2022-08-17T15:42:55.137Z,17.46
2022-08-17T15:45:24.870Z,18.19
2022-08-17T15:47:53.436Z,17.77
2022-08-17T15:50:21.916Z,17.65
2022-08-17T15:52:55.047Z,17.31
2022-08-17T15:55:24.828Z,17.44
2022-08-17T15:57:53.595Z,17.08
2022-08-17T16:00:28.170Z,17.57
2022-08-17T16:03:45.049Z,16.77
2022-08-17T16:05:45.240Z,16.95
2022-08-17T16:08:20.715Z,17.17
2022-08-17T16:10:51.202Z,17.09
2022-08-17T16:13:19.988Z,17.40
2022-08-17T16:15:56.929Z,17.27
2022-08-17T16:18:26.559Z,17.28
2022-08-17T16:20:55.168Z,17.83
2022-08-17T16:23:23.886Z,18.02
2022-08-17T16:25:54.516Z,17.45
2022-08-17T16:28:23.338Z,19.43
2022-08-17T16:31:08.190Z,18.62
2022-08-17T16:33:39.376Z,18.98
2022-08-17T16:36:08.498Z,19.10
2022-08-17T16:38:37.197Z,18.82
2022-08-17T16:41:07.116Z,19.74
2022-08-17T16:43:36.029Z,19.51
2022-08-17T16:46:04.371Z,19.25
2022-08-17T16:48:32.686Z,19.29
2022-08-17T16:51:03.504Z,19.59
2022-08-17T16:53:32.729Z,19.63
2022-08-17T16:56:01.339Z,19.92
2022-08-17T16:58:31.035Z,19.93
2022-08-17T17:00:59.709Z,19.99
2022-08-17T17:03:28.864Z,20.81
2022-08-17T17:06:00.497Z,20.62
2022-08-17T17:08:32.660Z,20.46
2022-08-17T17:11:03.951Z,20.39
2022-08-17T17:13:40.467Z,21.31
2022-08-17T17:16:13.386Z,21.73
2022-08-17T17:18:42.722Z,23.34
2022-08-17T17:21:11.886Z,22.31
2022-08-17T17:23:42.617Z,22.76
2022-08-17T17:26:36.141Z,23.04
2022-08-17T17:29:10.406Z,22.94
2022-08-17T17:31:40.987Z,23.44
2022-08-17T17:34:09.294Z,25.20
2022-08-17T17:36:40.783Z,25.77
2022-08-17T17:39:11.257Z,25.87
2022-08-17T17:41:42.454Z,26.01
2022-08-17T17:44:13.285Z,26.52
2022-08-17T17:46:47.089Z,26.64
2022-08-17T17:49:16.964Z,26.85
2022-08-17T17:52:08.500Z,27.39
2022-08-17T17:54:40.206Z,27.42
2022-08-17T17:57:09.855Z,27.73
2022-08-17T17:59:44.035Z,27.89
2022-08-17T18:02:36.509Z,28.51
2022-08-17T18:05:09.531Z,28.89
2022-08-17T18:07:39.215Z,29.20
2022-08-17T18:10:19.497Z,29.33
2022-08-17T18:12:59.884Z,29.25
2022-08-17T18:15:31.498Z,29.38
2022-08-17T18:18:00.673Z,29.74
2022-08-17T18:20:43.134Z,29.67
2022-08-17T18:23:17.685Z,29.66
2022-08-17T18:25:47.487Z,29.58
2022-08-17T18:28:25.212Z,29.64
2022-08-17T18:31:12.465Z,29.35
2022-08-17T18:33:41.503Z,29.73
2022-08-17T18:36:10.887Z,28.95
2022-08-17T18:38:42.606Z,29.57
2022-08-17T18:41:24.351Z,29.60
2022-08-17T18:44:01.535Z,29.78
2022-08-17T18:46:33.224Z,30.05
2022-08-17T18:49:05.298Z,29.20
2022-08-17T18:51:42.397Z,29.83
2022-08-17T18:54:16.157Z,29.54
2022-08-17T18:56:45.301Z,30.05
2022-08-17T18:59:18.261Z,30.24
2022-08-17T19:02:10.266Z,30.48
2022-08-17T19:04:42.649Z,30.37
2022-08-17T19:07:25.180Z,29.53
2022-08-17T19:09:55.247Z,39.66
2022-08-17T19:12:27.315Z,30.73
2022-08-17T19:14:56.343Z,30.31
2022-08-17T19:17:27.096Z,30.60
2022-08-17T19:19:56.473Z,30.81
2022-08-17T19:22:29.161Z,30.91
2022-08-17T19:25:03.537Z,30.34
2022-08-17T19:27:41.982Z,30.79
2022-08-17T19:30:17.785Z,30.89
2022-08-17T19:32:48.104Z,30.92
2022-08-17T19:35:24.625Z,31.28
2022-08-17T19:37:56.728Z,31.07
2022-08-17T19:40:51.239Z,31.08
2022-08-17T19:43:20.798Z,30.67
2022-08-17T19:45:51.432Z,30.88
2022-08-17T19:48:25.034Z,31.03
2022-08-17T19:50:55.143Z,31.39
2022-08-17T19:53:41.741Z,32.15
2022-08-17T19:56:16.834Z,32.21
2022-08-17T19:58:49.171Z,32.09
2022-08-17T20:01:21.045Z,32.20
2022-08-17T20:03:55.068Z,32.12
2022-08-17T20:06:23.493Z,32.07
2022-08-17T20:08:55.142Z,31.94
2022-08-17T20:11:25.108Z,32.05
2022-08-17T20:13:56.298Z,32.64
2022-08-17T20:16:24.841Z,33.25
2022-08-17T20:18:59.697Z,33.65
2022-08-17T20:21:33.063Z,33.87
2022-08-17T20:24:03.033Z,33.84
2022-08-17T20:26:36.269Z,33.67
2022-08-17T20:29:09.905Z,33.66
2022-08-17T20:31:44.687Z,33.75
2022-08-17T20:34:34.855Z,33.64
2022-08-17T20:37:07.866Z,33.84
2022-08-17T20:39:38.863Z,33.90
2022-08-17T20:42:12.585Z,34.04
2022-08-17T20:44:41.729Z,33.86
2022-08-17T20:47:11.744Z,33.95
2022-08-17T20:49:47.233Z,33.83
2022-08-17T20:52:18.402Z,33.61
2022-08-17T20:54:48.506Z,34.01
2022-08-17T20:57:44.337Z,34.04
2022-08-17T21:00:16.612Z,34.00
2022-08-17T21:02:45.868Z,34.03
2022-08-17T21:05:35.664Z,34.38
2022-08-17T21:08:16.103Z,34.03
2022-08-17T21:10:46.536Z,33.89
2022-08-17T21:13:34.876Z,34.00
2022-08-17T21:16:06.341Z,34.46
2022-08-17T21:18:38.653Z,34.40
2022-08-17T21:21:15.412Z,34.39
2022-08-17T21:23:59.575Z,34.48
2022-08-17T21:26:31.054Z,34.93
2022-08-17T21:29:29.775Z,35.15
2022-08-17T21:32:19.884Z,35.20
2022-08-17T21:35:12.350Z,35.86
2022-08-17T21:37:41.987Z,35.41
2022-08-17T21:40:22.937Z,35.58
2022-08-17T21:42:52.774Z,35.10
2022-08-17T21:45:22.337Z,35.29
2022-08-17T21:47:51.050Z,35.34
2022-08-17T21:50:20.585Z,35.38
2022-08-17T21:52:49.633Z,35.63
2022-08-17T21:55:28.186Z,35.47
2022-08-17T21:58:14.178Z,35.49
2022-08-17T22:00:44.331Z,35.75
2022-08-17T22:03:23.632Z,35.98
2022-08-17T22:05:52.002Z,36.21
2022-08-17T22:08:22.301Z,36.40
2022-08-17T22:10:52.471Z,36.45
2022-08-17T22:13:21.608Z,36.37
2022-08-17T22:15:50.778Z,36.20
2022-08-17T22:18:20.302Z,36.26
2022-08-17T22:20:50.813Z,36.44
2022-08-17T22:23:40.928Z,36.40
2022-08-17T22:26:13.330Z,36.15
2022-08-17T22:28:43.284Z,36.43
2022-08-17T22:31:14.555Z,35.88
2022-08-17T22:33:44.501Z,35.92
2022-08-17T22:36:24.633Z,36.31
2022-08-17T22:38:53.934Z,36.67
2022-08-17T22:41:43.803Z,36.92
2022-08-17T22:44:31.642Z,36.46
2022-08-17T22:47:03.035Z,37.30
2022-08-17T22:49:33.523Z,37.30
2022-08-17T22:52:03.498Z,37.28
2022-08-17T22:54:49.279Z,37.09
2022-08-17T22:57:35.210Z,37.31
2022-08-17T23:00:03.737Z,38.03
2022-08-17T23:02:34.396Z,38.22
2022-08-17T23:05:24.076Z,38.29
2022-08-17T23:07:53.232Z,38.64
2022-08-17T23:10:21.576Z,38.31
2022-08-17T23:12:50.843Z,38.24
2022-08-17T23:15:19.691Z,38.61
2022-08-17T23:17:49.410Z,38.06
2022-08-17T23:20:17.910Z,38.39
2022-08-17T23:22:51.431Z,38.40
2022-08-17T23:25:24.807Z,38.64
2022-08-17T23:27:53.694Z,40.10
2022-08-17T23:30:30.443Z,39.33
2022-08-17T23:33:01.220Z,38.73
2022-08-17T23:35:40.097Z,39.71
2022-08-17T23:38:10.128Z,39.75
2022-08-17T23:40:39.603Z,39.58
2022-08-17T23:45:57.535Z,39.79
2022-08-17T23:48:32.528Z,39.59
2022-08-17T23:51:08.795Z,39.89
2022-08-17T23:53:37.355Z,39.80
2022-08-17T23:56:10.302Z,39.81
2022-08-17T23:58:39.515Z,40.05
